Time;durP1;ratioP1;P1;durP2;ratioP2;P2;SDS_P1;SDS_P2;PMS_P1;PMS_P2;Temp;Humidity;BMP_temperature;BMP_pressure;BME280_temperature;BME280_humidity;BME280_pressure;Samples;Min_cycle;Max_cycle;Signal;HPM_P1;HPM_P2
2022/07/02 00:01:17;;;;;;;;;;;;;;;17.03;46.30;100818.03;4957084;29;1160;-51
2022/07/02 00:03:43;;;;;;;;;;;;;;;17.81;47.22;100810.44;4956961;29;1014;-49
2022/07/02 00:06:08;;;;;;;;;;;;;;;17.40;47.72;100816.88;4956038;28;884;-48
2022/07/02 00:08:33;;;;;;;;;;;;;;;17.20;47.50;100825.97;4940292;29;1015;-49
2022/07/02 00:10:59;;;;;;;;;;;;;;;17.14;46.90;100818.00;4957138;29;1975;-48
2022/07/02 00:13:25;;;;;;;;;;;;;;;17.12;46.58;100810.03;4956889;29;1011;-50
2022/07/02 00:15:50;;;;;;;;;;;;;;;17.10;46.51;100813.06;4957039;29;1050;-50
2022/07/02 00:18:16;;;;;;;;;;;;;;;17.12;46.03;100809.22;4956884;29;884;-49
2022/07/02 00:20:42;;;;;;;;;;;;;;;17.08;46.26;100808.94;4955970;28;1046;-49
2022/07/02 00:23:07;;;;;;;;;;;;;;;17.06;46.11;100805.66;4961220;29;1022;-49
2022/07/02 00:25:33;;;;;;;;;;;;;;;17.07;45.97;100813.63;4960324;29;1525;-47
2022/07/02 00:27:59;;;;;;;;;;;;;;;17.05;45.79;100810.31;4943126;29;1114;-48
2022/07/02 00:30:24;;;;;;;;;;;;;;;17.99;46.26;100817.25;4960246;29;1915;-48
2022/07/02 00:32:50;;;;;;;;;;;;;;;17.32;47.62;100819.34;4960203;29;1121;-48
2022/07/02 00:35:15;;;;;;;;;;;;;;;17.59;47.79;100810.78;4959021;29;1126;-50
2022/07/02 00:37:41;;;;;;;;;;;;;;;15.98;53.18;100820.00;4954461;29;998;-49
2022/07/02 00:40:06;;;;;;;;;;;;;;;17.20;53.02;100811.41;4954516;29;959;-51
2022/07/02 00:42:33;;;;;;;;;;;;;;;19.20;50.21;100811.50;4960000;28;807;-51
2022/07/02 00:44:58;;;;;;;;;;;;;;;14.81;60.26;100812.69;4947693;29;1114;-50
2022/07/02 00:47:24;;;;;;;;;;;;;;;16.74;52.36;100815.78;4959833;29;1066;-51
2022/07/02 00:49:49;;;;;;;;;;;;;;;17.03;50.10;100815.28;4926896;29;1971;-48
2022/07/02 00:52:15;;;;;;;;;;;;;;;17.09;49.03;100811.41;4957406;29;1047;-49
2022/07/02 00:54:40;;;;;;;;;;;;;;;17.06;48.30;100813.91;4942775;29;1019;-51
2022/07/02 00:57:06;;;;;;;;;;;;;;;17.04;48.17;100819.69;4960725;28;1113;-50
2022/07/02 00:59:32;;;;;;;;;;;;;;;17.02;47.41;100818.28;4959775;29;1034;-46
2022/07/02 01:01:57;;;;;;;;;;;;;;;17.05;47.49;100825.97;4959659;28;1121;-51
2022/07/02 01:04:23;;;;;;;;;;;;;;;16.94;47.28;100822.41;4963759;28;1011;-51
2022/07/02 01:06:49;;;;;;;;;;;;;;;17.17;47.51;100818.28;4959173;28;1078;-51
2022/07/02 01:11:59;;;;;;;;;;;;;;;17.20;48.38;100814.16;4959498;29;1041;-51
2022/07/02 01:14:24;;;;;;;;;;;;;;;17.13;47.73;100816.38;4959584;28;870;-51
2022/07/02 01:16:50;;;;;;;;;;;;;;;17.12;47.28;100817.47;4959444;29;971;-47
2022/07/02 01:19:16;;;;;;;;;;;;;;;17.38;47.50;100818.25;4958948;29;1097;-49
2022/07/02 01:22:00;;;;;;;;;;;;;;;17.56;48.65;100814.91;4945433;29;943;-50
2022/07/02 01:24:25;;;;;;;;;;;;;;;17.32;48.09;100817.44;4961925;28;1113;-50
2022/07/02 01:26:51;;;;;;;;;;;;;;;17.23;47.79;100816.34;4960100;28;1050;-48
2022/07/02 01:29:16;;;;;;;;;;;;;;;17.21;47.05;100818.56;4959822;28;1906;-48
2022/07/02 01:31:42;;;;;;;;;;;;;;;17.19;46.80;100820.75;4959796;28;983;-50
2022/07/02 01:34:07;;;;;;;;;;;;;;;17.09;46.72;100822.41;4959136;29;1078;-48
2022/07/02 01:36:32;;;;;;;;;;;;;;;17.08;46.44;100818.03;4957256;28;1148;-51
2022/07/02 01:38:58;;;;;;;;;;;;;;;17.09;46.21;100821.59;4958950;29;1062;-51
2022/07/02 01:41:38;;;;;;;;;;;;;;;17.09;46.23;100813.34;4959424;29;955;-48
2022/07/02 01:44:04;;;;;;;;;;;;;;;17.08;45.90;100819.94;4958954;29;1133;-49
2022/07/02 01:46:29;;;;;;;;;;;;;;;17.06;45.93;100822.16;4958697;29;1046;-50
2022/07/02 01:48:55;;;;;;;;;;;;;;;17.99;47.17;100828.25;4958973;29;1010;-50
2022/07/02 01:51:20;;;;;;;;;;;;;;;17.34;47.86;100828.97;4958566;28;1989;-50
2022/07/02 01:53:46;;;;;;;;;;;;;;;17.26;47.20;100832.28;4963971;28;1031;-49
2022/07/02 01:56:11;;;;;;;;;;;;;;;17.19;46.93;100831.75;4958705;29;1030;-50
2022/07/02 01:58:36;;;;;;;;;;;;;;;17.15;46.49;100825.16;4958549;29;1192;-50
2022/07/02 02:01:02;;;;;;;;;;;;;;;17.10;46.53;100829.56;4952400;29;1034;-49
2022/07/02 02:03:27;;;;;;;;;;;;;;;17.04;46.32;100829.81;4959223;28;1138;-51
2022/07/02 02:05:53;;;;;;;;;;;;;;;17.03;46.27;100831.75;4957985;28;1090;-52
2022/07/02 02:08:18;;;;;;;;;;;;;;;17.04;46.26;100830.66;4958301;29;1067;-46
2022/07/02 02:10:44;;;;;;;;;;;;;;;17.03;46.16;100829.00;4958229;29;1919;-49
2022/07/02 02:13:09;;;;;;;;;;;;;;;17.03;45.71;100822.69;4958252;29;971;-49
2022/07/02 02:15:35;;;;;;;;;;;;;;;17.00;45.86;100823.22;4958429;29;1141;-50
2022/07/02 02:18:00;;;;;;;;;;;;;;;16.95;45.84;100826.81;4958273;29;983;-48
2022/07/02 02:20:25;;;;;;;;;;;;;;;16.94;45.63;100833.41;4955866;29;967;-52
2022/07/02 02:22:51;;;;;;;;;;;;;;;17.05;46.20;100828.72;4958303;29;1089;-49
2022/07/02 02:25:16;;;;;;;;;;;;;;;17.68;47.57;100839.34;4962267;28;828;-49
2022/07/02 02:27:42;;;;;;;;;;;;;;;17.25;47.60;100841.63;4957732;29;1129;-50
2022/07/02 02:30:08;;;;;;;;;;;;;;;17.20;47.19;100842.47;4958098;29;1977;-47
2022/07/02 02:32:34;;;;;;;;;;;;;;;18.11;47.46;100848.00;4958473;29;1093;-52
2022/07/02 02:34:59;;;;;;;;;;;;;;;17.51;48.15;100844.34;4958316;29;1117;-50
2022/07/02 02:37:25;;;;;;;;;;;;;;;17.34;47.75;100856.47;4956657;28;1191;-51
2022/07/02 02:39:50;;;;;;;;;;;;;;;17.26;47.30;100848.78;4957758;29;1503;-51
2022/07/02 02:42:16;;;;;;;;;;;;;;;17.19;46.98;100848.22;4958298;29;975;-48
2022/07/02 02:44:41;;;;;;;;;;;;;;;17.21;46.43;100848.78;4957700;28;967;-51
2022/07/02 02:47:06;;;;;;;;;;;;;;;17.08;46.34;100848.25;4957740;29;1003;-49
2022/07/02 02:49:32;;;;;;;;;;;;;;;17.17;45.93;100855.94;4958052;29;1987;-50
2022/07/02 02:51:57;;;;;;;;;;;;;;;17.09;46.11;100866.34;4959124;28;1180;-46
2022/07/02 02:54:23;;;;;;;;;;;;;;;17.33;46.36;100865.00;4957891;29;1145;-47
2022/07/02 02:56:48;;;;;;;;;;;;;;;17.54;47.52;100866.59;4960078;28;1228;-47
2022/07/02 02:59:14;;;;;;;;;;;;;;;17.30;47.55;100871.03;4957622;29;1153;-45
2022/07/02 03:01:39;;;;;;;;;;;;;;;17.16;47.15;100876.25;4957776;29;1157;-49
2022/07/02 03:04:05;;;;;;;;;;;;;;;17.18;46.78;100882.28;4954844;29;1063;-52
2022/07/02 03:06:30;;;;;;;;;;;;;;;17.20;46.33;100883.69;4959769;28;897;-51
2022/07/02 03:08:55;;;;;;;;;;;;;;;17.13;46.49;100877.63;4957460;29;1113;-52
2022/07/02 03:11:21;;;;;;;;;;;;;;;17.08;46.23;100877.63;4957635;29;1907;-51
2022/07/02 03:13:46;;;;;;;;;;;;;;;17.10;46.05;100878.19;4957392;29;1046;-51
2022/07/02 03:16:12;;;;;;;;;;;;;;;17.10;46.22;100883.69;4957600;28;1200;-49
2022/07/02 03:18:37;;;;;;;;;;;;;;;17.05;45.97;100880.94;4963594;28;999;-51
2022/07/02 03:21:02;;;;;;;;;;;;;;;18.11;46.56;100892.03;4957261;28;1487;-58
2022/07/02 03:23:28;;;;;;;;;;;;;;;17.50;47.57;100886.69;4959654;28;1023;-55
2022/07/02 03:25:54;;;;;;;;;;;;;;;17.28;47.50;100885.06;4957582;29;986;-56
2022/07/02 03:28:19;;;;;;;;;;;;;;;17.14;47.24;100889.44;4958331;28;1458;-55
2022/07/02 03:30:44;;;;;;;;;;;;;;;17.13;46.82;100887.81;4961550;28;1983;-57
2022/07/02 03:33:10;;;;;;;;;;;;;;;17.13;46.63;100885.88;4961145;28;1188;-57
2022/07/02 03:35:35;;;;;;;;;;;;;;;17.13;46.34;100893.31;4958037;28;1319;-57
2022/07/02 03:38:03;;;;;;;;;;;;;;;17.08;46.49;100892.22;4962718;28;1175;-57
2022/07/02 03:40:28;;;;;;;;;;;;;;;17.83;47.35;100898.19;4961319;28;1296;-56
2022/07/02 03:42:54;;;;;;;;;;;;;;;17.39;47.81;100902.34;4959952;28;1157;-56
2022/07/02 03:45:19;;;;;;;;;;;;;;;17.24;47.48;100906.75;4957967;29;1042;-52
2022/07/02 03:47:45;;;;;;;;;;;;;;;17.28;46.97;100885.88;4957457;29;1204;-54
2022/07/02 03:50:10;;;;;;;;;;;;;;;17.29;46.44;100900.44;4956626;29;1911;-56
2022/07/02 03:52:38;;;;;;;;;;;;;;;17.24;46.46;100895.78;4957363;29;1079;-53
2022/07/02 03:55:04;;;;;;;;;;;;;;;17.13;46.43;100898.81;4966712;28;1185;-54
2022/07/02 03:57:29;;;;;;;;;;;;;;;17.19;46.24;100898.50;4961426;29;1038;-54
2022/07/02 03:59:56;;;;;;;;;;;;;;;17.12;46.41;100900.72;4965174;28;1263;-59
2022/07/02 04:02:22;;;;;;;;;;;;;;;17.17;45.87;100899.91;4964438;28;1035;-56
2022/07/02 04:04:48;;;;;;;;;;;;;;;17.09;46.03;100893.84;4961492;29;1045;-51
2022/07/02 04:07:13;;;;;;;;;;;;;;;17.02;46.17;100904.28;4942702;28;2380;-57
2022/07/02 04:09:39;;;;;;;;;;;;;;;17.01;46.37;100902.66;4961938;28;2251;-56
2022/07/02 04:12:04;;;;;;;;;;;;;;;17.09;45.87;100915.81;4956385;29;1837;-56
2022/07/02 04:14:30;;;;;;;;;;;;;;;16.96;46.12;100905.38;4952709;28;1979;-55
2022/07/02 04:16:55;;;;;;;;;;;;;;;16.95;46.28;100903.72;4958424;29;2023;-56
2022/07/02 04:19:21;;;;;;;;;;;;;;;17.89;46.63;100913.56;4962371;28;2153;-55
2022/07/02 04:21:46;;;;;;;;;;;;;;;17.36;47.68;100914.75;4960939;28;1972;-54
2022/07/02 04:24:12;;;;;;;;;;;;;;;17.19;47.22;100920.50;4957639;28;1014;-56
2022/07/02 04:26:37;;;;;;;;;;;;;;;17.18;47.17;100912.53;4967436;28;1442;-55
2022/07/02 04:29:02;;;;;;;;;;;;;;;17.10;46.78;100917.47;4961822;28;1023;-58
2022/07/02 04:31:28;;;;;;;;;;;;;;;17.13;46.50;100918.03;4963763;28;1991;-57
2022/07/02 04:33:53;;;;;;;;;;;;;;;17.10;46.36;100925.72;4961194;28;1026;-57
2022/07/02 04:36:19;;;;;;;;;;;;;;;17.05;46.26;100927.63;4964864;28;1114;-58
2022/07/02 04:38:44;;;;;;;;;;;;;;;17.05;46.54;100936.69;4960405;28;998;-58
2022/07/02 04:41:10;;;;;;;;;;;;;;;17.14;45.93;100933.41;4962602;28;1165;-57
2022/07/02 04:43:35;;;;;;;;;;;;;;;17.20;46.36;100932.31;4961236;28;1003;-57
2022/07/02 04:46:01;;;;;;;;;;;;;;;17.62;47.41;100931.22;4959920;29;880;-56
2022/07/02 04:48:26;;;;;;;;;;;;;;;17.37;47.58;100932.88;4960666;29;1007;-57
2022/07/02 04:50:52;;;;;;;;;;;;;;;17.31;47.29;100928.47;4960101;28;1981;-50
2022/07/02 04:53:17;;;;;;;;;;;;;;;17.23;46.75;100926.28;4960254;29;2458;-54
2022/07/02 04:55:43;;;;;;;;;;;;;;;17.28;46.73;100940.03;4959842;28;1946;-55
2022/07/02 04:58:08;;;;;;;;;;;;;;;17.14;46.77;100933.41;4965796;28;1090;-52
2022/07/02 05:00:34;;;;;;;;;;;;;;;17.13;46.43;100937.28;4973283;28;1216;-47
2022/07/02 05:02:59;;;;;;;;;;;;;;;17.03;46.64;100936.16;4971213;28;1087;-53
2022/07/02 05:05:25;;;;;;;;;;;;;;;17.13;46.19;100943.59;4973811;28;1110;-55
2022/07/02 05:07:50;;;;;;;;;;;;;;;17.10;46.50;100947.69;4970139;28;1205;-55
2022/07/02 05:10:16;;;;;;;;;;;;;;;17.09;46.49;100946.03;4973264;28;1983;-55
2022/07/02 05:12:41;;;;;;;;;;;;;;;17.04;46.48;100947.94;4974580;28;1141;-56
2022/07/02 05:15:07;;;;;;;;;;;;;;;17.98;46.84;100946.84;4975179;28;1295;-56
2022/07/02 05:17:32;;;;;;;;;;;;;;;17.39;47.74;100949.91;4975485;28;1287;-47
2022/07/02 05:19:58;;;;;;;;;;;;;;;17.23;47.76;100948.25;4973313;28;1264;-51
2022/07/02 05:22:23;;;;;;;;;;;;;;;17.29;47.24;100952.66;4964004;28;2372;-53
2022/07/02 05:24:48;;;;;;;;;;;;;;;17.18;47.23;100945.50;4973190;28;1225;-53
2022/07/02 05:27:14;;;;;;;;;;;;;;;17.20;46.73;100955.13;4960022;28;1061;-51
2022/07/02 05:29:39;;;;;;;;;;;;;;;17.21;46.46;100948.53;4959612;28;1977;-50
2022/07/02 05:32:05;;;;;;;;;;;;;;;17.18;46.55;100953.75;4971965;28;1204;-50
2022/07/02 05:34:30;;;;;;;;;;;;;;;17.09;46.50;100950.72;4973045;28;1251;-53
2022/07/02 05:36:56;;;;;;;;;;;;;;;17.15;46.56;100954.28;4970613;28;1264;-54
2022/07/02 05:39:21;;;;;;;;;;;;;;;17.14;46.56;100953.47;4975347;28;1149;-53
2022/07/02 05:41:46;;;;;;;;;;;;;;;17.09;46.57;100959.78;4974828;28;1314;-54
2022/07/02 05:44:12;;;;;;;;;;;;;;;17.16;46.29;100961.44;4973058;28;1220;-53
2022/07/02 05:46:37;;;;;;;;;;;;;;;17.78;47.32;100962.25;4970777;28;1181;-53
2022/07/02 05:49:03;;;;;;;;;;;;;;;17.47;47.67;100970.53;4974346;28;1252;-54
2022/07/02 05:51:28;;;;;;;;;;;;;;;17.31;47.53;100969.72;4970914;28;1983;-55
2022/07/02 05:53:54;;;;;;;;;;;;;;;17.28;47.78;100973.00;4973196;28;2496;-56
2022/07/02 05:56:19;;;;;;;;;;;;;;;18.54;45.84;100974.19;4969086;28;1173;-54
2022/07/02 05:58:45;;;;;;;;;;;;;;;18.06;47.59;100976.53;4975243;28;1121;-54
2022/07/02 06:01:10;;;;;;;;;;;;;;;17.85;48.55;100975.72;4971928;28;1368;-56
2022/07/02 06:03:35;;;;;;;;;;;;;;;17.78;48.98;100982.34;4964284;28;1445;-55
2022/07/02 06:08:45;;;;;;;;;;;;;;;17.69;50.17;100989.50;4958960;29;1346;-56
2022/07/02 06:11:11;;;;;;;;;;;;;;;17.53;50.98;100994.19;4964528;28;2000;-56
2022/07/02 06:13:36;;;;;;;;;;;;;;;17.54;50.84;100989.50;4959299;28;1018;-55
2022/07/02 06:16:02;;;;;;;;;;;;;;;17.48;51.57;100985.13;4962686;28;1002;-54
2022/07/02 06:18:27;;;;;;;;;;;;;;;17.45;51.64;100984.56;4959216;28;1022;-57
2022/07/02 06:20:53;;;;;;;;;;;;;;;17.41;51.95;100993.63;4959943;28;1007;-54
2022/07/02 06:23:21;;;;;;;;;;;;;;;17.40;52.31;100987.31;4973034;28;2532;-54
2022/07/02 06:25:47;;;;;;;;;;;;;;;17.33;52.66;101002.41;4972722;28;1240;-52
2022/07/02 06:28:13;;;;;;;;;;;;;;;17.32;52.85;100990.59;4972509;28;1014;-54
2022/07/02 06:30:38;;;;;;;;;;;;;;;17.31;52.92;101001.88;4973514;28;1981;-55
2022/07/02 06:33:04;;;;;;;;;;;;;;;17.29;53.20;100993.88;4973588;28;1220;-55
2022/07/02 06:35:29;;;;;;;;;;;;;;;17.24;53.63;100996.63;4972244;28;1287;-54
2022/07/02 06:37:55;;;;;;;;;;;;;;;17.26;53.54;100994.44;4971428;28;1372;-53
2022/07/02 06:40:20;;;;;;;;;;;;;;;17.22;53.80;101002.41;4969011;28;1256;-54
2022/07/02 06:42:46;;;;;;;;;;;;;;;17.20;53.91;100995.53;4972620;28;1232;-54
2022/07/02 06:45:11;;;;;;;;;;;;;;;17.16;54.47;100999.91;4958504;28;963;-56
2022/07/02 06:47:40;;;;;;;;;;;;;;;17.15;54.26;100992.75;4958296;29;1146;-56
2022/07/02 06:50:06;;;;;;;;;;;;;;;17.12;54.54;100994.13;4957942;28;1982;-56
2022/07/02 06:52:31;;;;;;;;;;;;;;;17.12;54.61;100996.06;4956838;28;2290;-57
2022/07/02 06:54:57;;;;;;;;;;;;;;;17.10;54.94;100999.91;4958373;29;988;-57
2022/07/02 06:57:23;;;;;;;;;;;;;;;17.10;54.84;101005.38;4958236;28;1175;-57
2022/07/02 06:59:48;;;;;;;;;;;;;;;17.08;54.94;101006.75;4958435;28;999;-57
2022/07/02 07:02:14;;;;;;;;;;;;;;;17.07;55.21;100996.88;4958225;28;955;-57
2022/07/02 07:04:41;;;;;;;;;;;;;;;17.04;55.25;101000.16;4958534;28;1109;-57
2022/07/02 07:07:08;;;;;;;;;;;;;;;16.99;55.62;101002.91;4958150;28;971;-58
2022/07/02 07:09:34;;;;;;;;;;;;;;;16.99;55.52;100998.22;4958206;29;1927;-57
2022/07/02 07:12:00;;;;;;;;;;;;;;;16.99;55.55;100998.22;4958440;28;963;-58
2022/07/02 07:14:25;;;;;;;;;;;;;;;16.99;55.63;101006.47;4957705;28;1296;-51
2022/07/02 07:16:51;;;;;;;;;;;;;;;16.96;55.89;101007.00;4958234;29;1078;-54
2022/07/02 07:19:17;;;;;;;;;;;;;;;16.95;56.04;101010.84;4957767;28;906;-56
2022/07/02 07:21:43;;;;;;;;;;;;;;;16.92;55.88;101009.47;4957492;28;2591;-57
2022/07/02 07:24:08;;;;;;;;;;;;;;;16.94;56.05;101011.94;4958209;28;1093;-56
2022/07/02 07:26:34;;;;;;;;;;;;;;;16.89;55.92;101004.50;4957904;29;1066;-48
2022/07/02 07:29:00;;;;;;;;;;;;;;;16.93;56.20;101004.81;4966656;28;1087;-48
2022/07/02 07:31:26;;;;;;;;;;;;;;;16.89;56.31;101003.69;4974634;28;1918;-54
2022/07/02 07:33:52;;;;;;;;;;;;;;;16.90;56.13;101002.59;4972725;28;1117;-51
2022/07/02 07:36:18;;;;;;;;;;;;;;;16.89;56.46;101009.19;4974969;28;1464;-48
2022/07/02 07:38:44;;;;;;;;;;;;;;;16.91;56.41;101007.00;4976023;28;1239;-51
2022/07/02 07:41:09;;;;;;;;;;;;;;;16.88;56.54;101010.25;4976712;28;1232;-51
2022/07/02 07:43:34;;;;;;;;;;;;;;;16.87;56.58;101011.34;4970214;28;1272;-50
2022/07/02 07:46:00;;;;;;;;;;;;;;;16.86;56.65;101009.72;4975898;28;1276;-48
2022/07/02 07:48:25;;;;;;;;;;;;;;;16.84;56.56;101017.38;4977778;28;1180;-52
2022/07/02 07:50:51;;;;;;;;;;;;;;;16.85;56.72;101016.28;4973551;28;1969;-48
2022/07/02 07:53:16;;;;;;;;;;;;;;;16.82;56.76;101014.09;4974347;28;2483;-48
2022/07/02 07:55:42;;;;;;;;;;;;;;;16.81;56.88;101023.41;4972286;28;1290;-53
2022/07/02 07:58:07;;;;;;;;;;;;;;;16.82;56.80;101014.09;4974392;28;1264;-49
2022/07/02 08:00:32;;;;;;;;;;;;;;;16.81;56.79;101021.47;4978094;28;1287;-48
2022/07/02 08:02:58;;;;;;;;;;;;;;;16.76;56.98;101019.56;4976117;28;1235;-52
2022/07/02 08:05:24;;;;;;;;;;;;;;;16.80;56.93;101021.75;4974519;28;1248;-46
2022/07/02 08:07:49;;;;;;;;;;;;;;;16.76;57.12;101016.81;4976359;28;1213;-51
2022/07/02 08:10:15;;;;;;;;;;;;;;;16.76;57.05;101029.72;4960630;28;1906;-48
2022/07/02 08:12:41;;;;;;;;;;;;;;;16.79;56.94;101022.84;4943802;28;1296;-50
2022/07/02 08:15:06;;;;;;;;;;;;;;;16.75;57.05;101028.88;4961584;29;1125;-52
2022/07/02 08:17:32;;;;;;;;;;;;;;;16.73;57.17;101025.59;4960944;28;1380;-50
2022/07/02 08:19:57;;;;;;;;;;;;;;;16.77;57.32;101017.63;4973198;28;1160;-47
2022/07/02 08:22:23;;;;;;;;;;;;;;;16.73;57.33;101025.59;4966903;28;1737;-51
2022/07/02 08:24:48;;;;;;;;;;;;;;;16.77;57.46;101021.22;4970107;28;1318;-51
2022/07/02 08:27:14;;;;;;;;;;;;;;;16.75;57.61;101017.91;4971210;28;1441;-49
2022/07/02 08:29:39;;;;;;;;;;;;;;;16.74;57.49;101024.47;4976130;28;1975;-49
2022/07/02 08:32:05;;;;;;;;;;;;;;;16.74;57.48;101016.22;4962941;28;1007;-49
2022/07/02 08:34:31;;;;;;;;;;;;;;;16.75;57.36;101023.38;4969883;28;1378;-54
2022/07/02 08:36:56;;;;;;;;;;;;;;;16.76;57.62;101033.28;4972519;28;1397;-51
2022/07/02 08:39:22;;;;;;;;;;;;;;;16.76;57.48;101030.53;4972618;28;1440;-53
2022/07/02 08:41:47;;;;;;;;;;;;;;;16.77;57.32;101034.94;4975394;28;1389;-53
2022/07/02 08:44:13;;;;;;;;;;;;;;;16.79;57.31;101031.09;4955582;28;1372;-49
2022/07/02 08:46:38;;;;;;;;;;;;;;;16.73;57.93;101032.97;4951783;28;1346;-49
2022/07/02 08:49:04;;;;;;;;;;;;;;;16.73;57.89;101036.56;4976301;28;1424;-52
2022/07/02 08:51:29;;;;;;;;;;;;;;;16.74;57.89;101035.47;4953338;28;1910;-48
2022/07/02 08:53:55;;;;;;;;;;;;;;;16.72;57.76;101037.66;4953045;28;2270;-50
2022/07/02 08:56:20;;;;;;;;;;;;;;;16.73;57.85;101039.31;4971887;28;1220;-51
2022/07/02 08:58:45;;;;;;;;;;;;;;;16.74;57.71;101040.94;4976253;28;1262;-52
2022/07/02 09:01:11;;;;;;;;;;;;;;;16.74;57.89;101032.72;4956870;28;1159;-50
2022/07/02 09:03:37;;;;;;;;;;;;;;;16.75;57.79;101033.56;4975145;28;1232;-46
2022/07/02 09:06:03;;;;;;;;;;;;;;;16.78;57.80;101035.75;4970693;28;1149;-49
2022/07/02 09:08:29;;;;;;;;;;;;;;;16.73;57.65;101043.97;4975544;28;1257;-48
2022/07/02 09:10:55;;;;;;;;;;;;;;;16.73;57.89;101039.31;4973152;28;1898;-47
2022/07/02 09:13:20;;;;;;;;;;;;;;;16.73;57.79;101033.81;4971714;28;1157;-49
2022/07/02 09:15:46;;;;;;;;;;;;;;;16.76;57.68;101043.44;4956767;28;1114;-49
2022/07/02 09:18:11;;;;;;;;;;;;;;;16.72;57.78;101037.66;4959586;28;1047;-49
2022/07/02 09:20:37;;;;;;;;;;;;;;;16.74;57.74;101040.13;4971597;28;1347;-47
2022/07/02 09:23:07;;;;;;;;;;;;;;;16.70;57.69;101042.56;4974185;28;2578;-45
2022/07/02 09:25:32;;;;;;;;;;;;;;;16.74;57.63;101040.13;4949642;29;1237;-49
2022/07/02 09:28:03;;;;;;;;;;;;;;;16.69;57.45;101038.19;4942554;29;1118;-47
2022/07/02 09:30:29;;;;;;;;;;;;;;;16.71;57.65;101030.50;4975248;28;1898;-47
2022/07/02 09:33:28;;;;;;;;;;;;;;;16.74;57.63;101031.91;4974034;28;1303;-49
2022/07/02 09:35:40;;;;;;;;;;;;;;;16.72;57.88;101037.66;4969537;28;1307;-47
2022/07/02 09:38:09;;;;;;;;;;;;;;;16.69;57.97;101038.19;4973236;28;1288;-48
2022/07/02 09:40:35;;;;;;;;;;;;;;;16.72;58.01;101043.16;4975424;28;1228;-50
2022/07/02 09:43:00;;;;;;;;;;;;;;;16.68;57.96;101039.28;4972113;28;1248;-47
2022/07/02 09:45:26;;;;;;;;;;;;;;;16.74;57.85;101046.44;4973221;28;1272;-50
2022/07/02 09:47:53;;;;;;;;;;;;;;;16.71;58.12;101035.19;4973368;28;1535;-48
2022/07/02 09:50:20;;;;;;;;;;;;;;;16.76;57.69;101033.28;4967977;28;1902;-46
2022/07/02 09:52:49;;;;;;;;;;;;;;;16.73;58.03;101025.59;4968868;28;2438;-47
2022/07/02 09:55:18;;;;;;;;;;;;;;;16.73;58.18;101033.81;4974216;28;1256;-47
2022/07/02 09:57:53;;;;;;;;;;;;;;;16.73;58.34;101033.81;4953238;28;971;-54
2022/07/02 10:00:18;;;;;;;;;;;;;;;16.72;58.06;101034.91;4959154;28;1157;-51
2022/07/02 10:02:44;;;;;;;;;;;;;;;16.74;58.06;101040.94;4958694;29;1047;-49
2022/07/02 10:05:09;;;;;;;;;;;;;;;16.75;58.01;101041.78;4962665;28;1133;-51
2022/07/02 10:07:35;;;;;;;;;;;;;;;16.76;58.15;101040.72;4959054;28;967;-50
2022/07/02 10:10:04;;;;;;;;;;;;;;;16.71;58.00;101038.75;4959034;28;1898;-48
2022/07/02 10:12:29;;;;;;;;;;;;;;;16.74;58.30;101046.44;4955881;28;1158;-50
2022/07/02 10:14:54;;;;;;;;;;;;;;;16.75;58.18;101047.28;4959446;29;1054;-49
2022/07/02 10:17:20;;;;;;;;;;;;;;;16.75;58.24;101041.78;4942759;28;968;-53
2022/07/02 10:19:45;;;;;;;;;;;;;;;16.76;58.16;101049.75;4958587;28;1070;-51
2022/07/02 10:22:11;;;;;;;;;;;;;;;16.72;58.19;101047.81;4936634;29;2412;-48
2022/07/02 10:24:36;;;;;;;;;;;;;;;16.75;58.31;101048.09;4963769;28;956;-50
2022/07/02 10:27:02;;;;;;;;;;;;;;;16.77;58.13;101053.31;4959197;29;1066;-52
2022/07/02 10:29:28;;;;;;;;;;;;;;;16.75;58.33;101048.09;4963008;28;1002;-50
2022/07/02 10:32:16;;;;;;;;;;;;;;;16.75;58.20;101047.28;4958641;29;1913;-52
2022/07/02 10:35:11;;;;;;;;;;;;;;;16.73;58.17;101053.06;4944985;28;1772;-51
2022/07/02 10:37:37;;;;;;;;;;;;;;;16.72;58.50;101051.38;4941605;29;1286;-54
2022/07/02 10:40:03;;;;;;;;;;;;;;;16.75;58.29;101048.09;4958492;28;1157;-53
2022/07/02 10:42:59;;;;;;;;;;;;;;;16.71;58.58;101051.66;4958611;28;923;-52
2022/07/02 10:45:25;;;;;;;;;;;;;;;16.74;58.08;101046.44;4957398;28;1591;-51
2022/07/02 10:47:54;;;;;;;;;;;;;;;16.72;58.24;101048.66;4958479;28;1062;-55
2022/07/02 10:50:20;;;;;;;;;;;;;;;16.75;58.33;101048.09;4951766;28;1906;-57
2022/07/02 10:52:49;;;;;;;;;;;;;;;16.72;58.14;101045.91;4958281;28;2534;-51
2022/07/02 10:55:30;;;;;;;;;;;;;;;16.71;58.15;101046.97;4958014;29;1110;-54
2022/07/02 10:57:56;;;;;;;;;;;;;;;16.74;58.26;101045.63;4957980;29;1074;-52
2022/07/02 11:00:26;;;;;;;;;;;;;;;16.72;58.46;101045.91;4958570;28;1137;-52
2022/07/02 11:02:51;;;;;;;;;;;;;;;16.75;58.04;101050.84;4958017;28;1082;-52
2022/07/02 11:05:16;;;;;;;;;;;;;;;16.73;58.24;101049.47;4956636;28;1126;-51
2022/07/02 11:07:43;;;;;;;;;;;;;;;16.72;58.33;101048.66;4957776;28;1169;-50
2022/07/02 11:10:08;;;;;;;;;;;;;;;16.69;58.41;101046.44;4960621;28;1906;-52
2022/07/02 11:12:50;;;;;;;;;;;;;;;16.73;58.36;101043.97;4959468;28;1140;-52
2022/07/02 11:15:16;;;;;;;;;;;;;;;16.73;58.31;101044.81;4941773;29;1062;-50
2022/07/02 11:17:42;;;;;;;;;;;;;;;16.73;58.18;101047.56;4958481;28;1145;-50
2022/07/02 11:20:08;;;;;;;;;;;;;;;16.69;58.43;101049.19;4939668;29;866;-51
2022/07/02 11:22:34;;;;;;;;;;;;;;;16.70;58.52;101056.31;4941202;28;2486;-47
2022/07/02 11:24:59;;;;;;;;;;;;;;;16.74;58.56;101048.38;4957326;29;994;-53
2022/07/02 11:27:24;;;;;;;;;;;;;;;16.74;58.54;101053.88;4940719;28;1307;-53
2022/07/02 11:29:53;;;;;;;;;;;;;;;16.71;58.50;101052.47;4971285;28;1976;-53
2022/07/02 11:32:19;;;;;;;;;;;;;;;16.71;58.63;101055.22;4963478;28;1229;-50
2022/07/02 11:34:45;;;;;;;;;;;;;;;16.75;58.37;101058.28;4968127;28;1338;-53
2022/07/02 11:37:20;;;;;;;;;;;;;;;16.74;58.35;101056.63;4957797;28;993;-51
2022/07/02 11:39:46;;;;;;;;;;;;;;;16.74;58.33;101057.44;4962346;28;991;-47
2022/07/02 11:42:11;;;;;;;;;;;;;;;16.73;58.48;101055.78;4957966;28;1011;-55
2022/07/02 11:44:37;;;;;;;;;;;;;;;16.73;58.29;101057.69;4957675;29;1125;-56
2022/07/02 11:47:02;;;;;;;;;;;;;;;16.72;58.22;101062.38;4957523;28;1228;-55
2022/07/02 11:49:30;;;;;;;;;;;;;;;16.75;58.30;101072.00;4957944;29;1087;-50
2022/07/02 11:51:56;;;;;;;;;;;;;;;16.73;58.19;101061.28;4956201;28;2537;-56
2022/07/02 11:54:21;;;;;;;;;;;;;;;16.71;58.25;101062.66;4958170;28;1384;-56
2022/07/02 11:56:47;;;;;;;;;;;;;;;16.73;58.25;101054.94;4964881;28;1277;-55
2022/07/02 11:59:16;;;;;;;;;;;;;;;16.70;58.72;101061.78;4957411;29;1217;-53
2022/07/02 12:01:42;;;;;;;;;;;;;;;16.75;58.34;101052.78;4957832;28;1109;-52
2022/07/02 12:04:11;;;;;;;;;;;;;;;16.72;58.54;101051.38;4959264;28;1193;-52
2022/07/02 12:06:44;;;;;;;;;;;;;;;16.70;58.56;101064.53;4962951;28;1220;-53
2022/07/02 12:09:10;;;;;;;;;;;;;;;16.74;58.25;101059.34;4957909;28;1121;-53
2022/07/02 12:11:36;;;;;;;;;;;;;;;16.70;58.57;101050.00;4957589;28;1977;-53
2022/07/02 12:14:02;;;;;;;;;;;;;;;16.71;58.37;101059.91;4959758;28;959;-50
2022/07/02 12:16:27;;;;;;;;;;;;;;;16.71;58.52;101057.97;4958853;28;979;-49
2022/07/02 12:19:11;;;;;;;;;;;;;;;16.70;58.13;101055.50;4955718;28;983;-53
2022/07/02 12:21:37;;;;;;;;;;;;;;;16.70;58.49;101045.31;4960899;29;2514;-52
2022/07/02 12:24:06;;;;;;;;;;;;;;;16.72;58.42;101047.81;4960812;28;956;-54
2022/07/02 12:26:32;;;;;;;;;;;;;;;16.68;58.46;101047.53;4961045;29;1062;-55
2022/07/02 12:31:52;;;;;;;;;;;;;;;16.69;58.35;101043.69;4961235;28;1906;-56
2022/07/02 12:34:18;;;;;;;;;;;;;;;16.72;58.42;101047.81;4962614;28;1046;-50
2022/07/02 12:36:54;;;;;;;;;;;;;;;16.72;58.36;101043.16;4959267;28;896;-50
2022/07/02 12:39:23;;;;;;;;;;;;;;;16.74;58.38;101046.44;4970798;28;1110;-56
2022/07/02 12:41:48;;;;;;;;;;;;;;;16.71;58.49;101046.97;4957920;28;1214;-53
2022/07/02 12:44:17;;;;;;;;;;;;;;;16.74;58.16;101051.13;4960695;28;1026;-51
2022/07/02 12:46:43;;;;;;;;;;;;;;;16.69;58.20;101054.69;4956670;29;1232;-52
2022/07/02 12:49:16;;;;;;;;;;;;;;;16.68;58.26;101047.53;4961051;28;854;-51
2022/07/02 12:52:00;;;;;;;;;;;;;;;16.70;58.30;101059.06;4968371;28;1985;-49